sensor_id;sensor_type;location;lat;lon;timestamp;P1;durP1;ratioP1;P2;durP2;ratioP2
78224;SDS011;67498;53.650;10.090;2024-02-21T00:00:18;21.47;;;6.37;;
78224;SDS011;67498;53.650;10.090;2024-02-21T00:02:44;17.80;;;5.63;;
78224;SDS011;67498;53.650;10.090;2024-02-21T00:05:10;22.33;;;6.43;;
78224;SDS011;67498;53.650;10.090;2024-02-21T00:07:35;26.17;;;6.53;;
78224;SDS011;67498;53.650;10.090;2024-02-21T00:10:00;21.63;;;5.87;;
78224;SDS011;67498;53.650;10.090;2024-02-21T00:12:25;16.27;;;4.93;;
78224;SDS011;67498;53.650;10.090;2024-02-21T00:14:51;21.23;;;6.27;;
78224;SDS011;67498;53.650;10.090;2024-02-21T00:17:16;23.40;;;6.47;;
78224;SDS011;67498;53.650;10.090;2024-02-21T00:19:41;20.70;;;5.93;;
78224;SDS011;67498;53.650;10.090;2024-02-21T00:22:07;21.00;;;6.20;;
78224;SDS011;67498;53.650;10.090;2024-02-21T00:24:33;22.05;;;7.30;;
78224;SDS011;67498;53.650;10.090;2024-02-21T00:26:58;19.63;;;6.20;;
78224;SDS011;67498;53.650;10.090;2024-02-21T00:29:23;18.90;;;5.97;;
78224;SDS011;67498;53.650;10.090;2024-02-21T00:31:49;19.03;;;6.43;;
78224;SDS011;67498;53.650;10.090;2024-02-21T00:34:14;22.63;;;6.67;;
78224;SDS011;67498;53.650;10.090;2024-02-21T00:36:39;32.77;;;7.73;;
78224;SDS011;67498;53.650;10.090;2024-02-21T00:39:04;24.03;;;6.87;;
78224;SDS011;67498;53.650;10.090;2024-02-21T00:41:30;30.20;;;7.47;;
78224;SDS011;67498;53.650;10.090;2024-02-21T00:43:55;25.40;;;8.03;;
78224;SDS011;67498;53.650;10.090;2024-02-21T00:46:20;21.73;;;6.70;;
78224;SDS011;67498;53.650;10.090;2024-02-21T00:48:46;21.10;;;6.50;;
78224;SDS011;67498;53.650;10.090;2024-02-21T00:51:11;32.93;;;7.47;;
78224;SDS011;67498;53.650;10.090;2024-02-21T00:53:36;26.60;;;8.53;;
78224;SDS011;67498;53.650;10.090;2024-02-21T00:56:04;18.37;;;6.67;;
78224;SDS011;67498;53.650;10.090;2024-02-21T00:58:32;25.45;;;7.32;;
78224;SDS011;67498;53.650;10.090;2024-02-21T01:00:57;25.37;;;7.23;;
78224;SDS011;67498;53.650;10.090;2024-02-21T01:03:23;22.93;;;7.77;;
78224;SDS011;67498;53.650;10.090;2024-02-21T01:05:48;31.80;;;8.23;;
78224;SDS011;67498;53.650;10.090;2024-02-21T01:08:13;18.83;;;6.83;;
78224;SDS011;67498;53.650;10.090;2024-02-21T01:10:39;21.77;;;7.43;;
78224;SDS011;67498;53.650;10.090;2024-02-21T01:13:04;20.43;;;6.53;;
78224;SDS011;67498;53.650;10.090;2024-02-21T01:15:29;28.93;;;8.63;;
78224;SDS011;67498;53.650;10.090;2024-02-21T01:17:55;25.87;;;7.60;;
78224;SDS011;67498;53.650;10.090;2024-02-21T01:20:20;21.50;;;6.77;;
78224;SDS011;67498;53.650;10.090;2024-02-21T01:22:46;18.33;;;6.38;;
78224;SDS011;67498;53.650;10.090;2024-02-21T01:25:11;16.97;;;6.70;;
78224;SDS011;67498;53.650;10.090;2024-02-21T01:27:37;25.73;;;6.93;;
78224;SDS011;67498;53.650;10.090;2024-02-21T01:30:02;21.53;;;6.60;;
78224;SDS011;67498;53.650;10.090;2024-02-21T01:32:27;28.10;;;7.70;;
78224;SDS011;67498;53.650;10.090;2024-02-21T01:34:53;19.53;;;6.10;;
78224;SDS011;67498;53.650;10.090;2024-02-21T01:37:18;16.00;;;5.60;;
78224;SDS011;67498;53.650;10.090;2024-02-21T01:39:43;19.63;;;6.73;;
78224;SDS011;67498;53.650;10.090;2024-02-21T01:42:08;17.50;;;6.37;;
78224;SDS011;67498;53.650;10.090;2024-02-21T01:44:34;27.33;;;6.93;;
78224;SDS011;67498;53.650;10.090;2024-02-21T01:46:59;23.80;;;6.33;;
78224;SDS011;67498;53.650;10.090;2024-02-21T01:49:24;25.20;;;8.17;;
78224;SDS011;67498;53.650;10.090;2024-02-21T01:51:50;18.90;;;6.10;;
78224;SDS011;67498;53.650;10.090;2024-02-21T01:54:17;18.38;;;6.38;;
78224;SDS011;67498;53.650;10.090;2024-02-21T01:56:44;23.37;;;7.40;;
78224;SDS011;67498;53.650;10.090;2024-02-21T01:59:10;17.08;;;5.97;;
78224;SDS011;67498;53.650;10.090;2024-02-21T02:01:37;20.88;;;6.63;;
78224;SDS011;67498;53.650;10.090;2024-02-21T02:04:02;17.93;;;5.73;;
78224;SDS011;67498;53.650;10.090;2024-02-21T02:06:30;18.52;;;6.22;;
78224;SDS011;67498;53.650;10.090;2024-02-21T02:08:55;17.38;;;6.10;;
78224;SDS011;67498;53.650;10.090;2024-02-21T02:11:21;23.53;;;8.00;;
78224;SDS011;67498;53.650;10.090;2024-02-21T02:13:47;16.60;;;5.93;;
78224;SDS011;67498;53.650;10.090;2024-02-21T02:16:12;20.67;;;6.13;;
78224;SDS011;67498;53.650;10.090;2024-02-21T02:18:37;18.40;;;5.97;;
78224;SDS011;67498;53.650;10.090;2024-02-21T02:21:06;18.10;;;6.13;;
78224;SDS011;67498;53.650;10.090;2024-02-21T02:23:38;19.60;;;6.32;;
78224;SDS011;67498;53.650;10.090;2024-02-21T02:26:05;26.02;;;6.95;;
78224;SDS011;67498;53.650;10.090;2024-02-21T02:28:32;21.20;;;6.40;;
78224;SDS011;67498;53.650;10.090;2024-02-21T02:30:57;28.10;;;8.43;;
78224;SDS011;67498;53.650;10.090;2024-02-21T02:33:22;21.30;;;7.57;;
78224;SDS011;67498;53.650;10.090;2024-02-21T02:35:48;32.78;;;9.18;;
78224;SDS011;67498;53.650;10.090;2024-02-21T02:38:13;26.40;;;8.27;;
78224;SDS011;67498;53.650;10.090;2024-02-21T02:40:39;20.07;;;7.47;;
78224;SDS011;67498;53.650;10.090;2024-02-21T02:43:08;20.80;;;6.97;;
78224;SDS011;67498;53.650;10.090;2024-02-21T02:45:34;23.60;;;7.90;;
78224;SDS011;67498;53.650;10.090;2024-02-21T02:47:59;23.03;;;7.13;;
78224;SDS011;67498;53.650;10.090;2024-02-21T02:50:25;21.50;;;8.27;;
78224;SDS011;67498;53.650;10.090;2024-02-21T02:52:51;23.73;;;8.98;;
78224;SDS011;67498;53.650;10.090;2024-02-21T02:55:17;30.23;;;8.93;;
78224;SDS011;67498;53.650;10.090;2024-02-21T02:57:43;27.87;;;8.40;;
78224;SDS011;67498;53.650;10.090;2024-02-21T03:00:08;22.40;;;7.53;;
78224;SDS011;67498;53.650;10.090;2024-02-21T03:02:35;35.55;;;8.88;;
78224;SDS011;67498;53.650;10.090;2024-02-21T03:05:03;20.83;;;7.93;;
78224;SDS011;67498;53.650;10.090;2024-02-21T03:07:37;33.17;;;9.53;;
78224;SDS011;67498;53.650;10.090;2024-02-21T03:10:03;27.48;;;9.05;;
78224;SDS011;67498;53.650;10.090;2024-02-21T03:12:29;26.57;;;9.10;;
78224;SDS011;67498;53.650;10.090;2024-02-21T03:14:54;24.07;;;8.87;;
78224;SDS011;67498;53.650;10.090;2024-02-21T03:17:20;27.95;;;9.18;;
78224;SDS011;67498;53.650;10.090;2024-02-21T03:19:45;30.93;;;9.10;;
78224;SDS011;67498;53.650;10.090;2024-02-21T03:22:11;27.20;;;9.10;;
78224;SDS011;67498;53.650;10.090;2024-02-21T03:24:36;25.33;;;8.97;;
78224;SDS011;67498;53.650;10.090;2024-02-21T03:27:01;30.07;;;9.33;;
78224;SDS011;67498;53.650;10.090;2024-02-21T03:29:27;32.38;;;9.70;;
78224;SDS011;67498;53.650;10.090;2024-02-21T03:31:52;28.87;;;8.53;;
78224;SDS011;67498;53.650;10.090;2024-02-21T03:34:17;27.53;;;9.40;;
78224;SDS011;67498;53.650;10.090;2024-02-21T03:36:43;24.63;;;8.33;;
78224;SDS011;67498;53.650;10.090;2024-02-21T03:39:08;31.43;;;6.90;;
78224;SDS011;67498;53.650;10.090;2024-02-21T03:41:34;37.33;;;8.88;;
78224;SDS011;67498;53.650;10.090;2024-02-21T03:44:00;23.47;;;8.53;;
78224;SDS011;67498;53.650;10.090;2024-02-21T03:46:25;23.63;;;7.73;;
78224;SDS011;67498;53.650;10.090;2024-02-21T03:48:50;30.70;;;9.87;;
78224;SDS011;67498;53.650;10.090;2024-02-21T03:51:16;28.35;;;8.75;;
78224;SDS011;67498;53.650;10.090;2024-02-21T03:53:41;30.63;;;8.13;;
78224;SDS011;67498;53.650;10.090;2024-02-21T03:56:06;22.97;;;7.77;;
78224;SDS011;67498;53.650;10.090;2024-02-21T03:58:32;24.03;;;7.90;;
78224;SDS011;67498;53.650;10.090;2024-02-21T04:00:59;23.63;;;7.30;;
78224;SDS011;67498;53.650;10.090;2024-02-21T04:03:26;23.92;;;8.07;;
78224;SDS011;67498;53.650;10.090;2024-02-21T04:05:51;19.53;;;6.63;;
78224;SDS011;67498;53.650;10.090;2024-02-21T04:08:17;27.17;;;7.93;;
78224;SDS011;67498;53.650;10.090;2024-02-21T04:10:42;19.77;;;7.00;;
78224;SDS011;67498;53.650;10.090;2024-02-21T04:13:07;25.17;;;7.13;;
78224;SDS011;67498;53.650;10.090;2024-02-21T04:15:33;20.57;;;6.73;;
78224;SDS011;67498;53.650;10.090;2024-02-21T04:17:58;25.10;;;7.40;;
78224;SDS011;67498;53.650;10.090;2024-02-21T04:20:24;24.77;;;8.07;;
78224;SDS011;67498;53.650;10.090;2024-02-21T04:22:49;39.73;;;14.13;;
78224;SDS011;67498;53.650;10.090;2024-02-21T04:25:15;22.00;;;6.53;;
78224;SDS011;67498;53.650;10.090;2024-02-21T04:27:40;15.98;;;6.82;;
78224;SDS011;67498;53.650;10.090;2024-02-21T04:30:06;22.87;;;7.47;;
78224;SDS011;67498;53.650;10.090;2024-02-21T04:32:32;23.73;;;7.43;;
78224;SDS011;67498;53.650;10.090;2024-02-21T04:34:57;23.77;;;7.73;;
78224;SDS011;67498;53.650;10.090;2024-02-21T04:37:22;22.67;;;7.27;;
78224;SDS011;67498;53.650;10.090;2024-02-21T04:39:48;18.65;;;6.32;;
78224;SDS011;67498;53.650;10.090;2024-02-21T04:42:14;20.27;;;6.27;;
78224;SDS011;67498;53.650;10.090;2024-02-21T04:44:40;23.92;;;7.50;;
78224;SDS011;67498;53.650;10.090;2024-02-21T04:47:05;18.43;;;6.37;;
78224;SDS011;67498;53.650;10.090;2024-02-21T04:49:31;21.13;;;6.55;;
78224;SDS011;67498;53.650;10.090;2024-02-21T04:51:57;24.47;;;9.43;;
78224;SDS011;67498;53.650;10.090;2024-02-21T04:54:22;22.43;;;6.50;;
78224;SDS011;67498;53.650;10.090;2024-02-21T04:56:48;20.45;;;6.15;;
78224;SDS011;67498;53.650;10.090;2024-02-21T04:59:13;20.77;;;6.67;;
78224;SDS011;67498;53.650;10.090;2024-02-21T05:01:38;16.50;;;5.53;;
78224;SDS011;67498;53.650;10.090;2024-02-21T05:04:04;14.97;;;5.17;;
78224;SDS011;67498;53.650;10.090;2024-02-21T05:06:29;16.03;;;5.37;;
78224;SDS011;67498;53.650;10.090;2024-02-21T05:08:54;15.43;;;5.53;;
78224;SDS011;67498;53.650;10.090;2024-02-21T05:11:20;16.83;;;5.85;;
78224;SDS011;67498;53.650;10.090;2024-02-21T05:13:46;10.40;;;4.70;;
78224;SDS011;67498;53.650;10.090;2024-02-21T05:16:12;16.77;;;5.07;;
78224;SDS011;67498;53.650;10.090;2024-02-21T05:18:37;15.93;;;4.73;;
78224;SDS011;67498;53.650;10.090;2024-02-21T05:21:02;12.30;;;4.93;;
78224;SDS011;67498;53.650;10.090;2024-02-21T05:23:28;13.60;;;4.43;;
78224;SDS011;67498;53.650;10.090;2024-02-21T05:25:53;12.43;;;4.50;;
78224;SDS011;67498;53.650;10.090;2024-02-21T05:28:18;14.07;;;4.80;;
78224;SDS011;67498;53.650;10.090;2024-02-21T05:30:44;12.30;;;4.57;;
78224;SDS011;67498;53.650;10.090;2024-02-21T05:33:09;17.67;;;4.70;;
78224;SDS011;67498;53.650;10.090;2024-02-21T05:35:35;13.33;;;5.03;;
78224;SDS011;67498;53.650;10.090;2024-02-21T05:38:01;9.55;;;3.17;;
78224;SDS011;67498;53.650;10.090;2024-02-21T05:40:31;15.60;;;5.03;;
78224;SDS011;67498;53.650;10.090;2024-02-21T05:42:57;10.43;;;3.92;;
78224;SDS011;67498;53.650;10.090;2024-02-21T05:45:22;9.57;;;3.70;;
78224;SDS011;67498;53.650;10.090;2024-02-21T05:47:48;13.50;;;3.73;;
78224;SDS011;67498;53.650;10.090;2024-02-21T05:50:13;8.77;;;3.13;;
78224;SDS011;67498;53.650;10.090;2024-02-21T05:52:38;12.15;;;4.00;;
78224;SDS011;67498;53.650;10.090;2024-02-21T05:55:04;12.30;;;4.07;;
78224;SDS011;67498;53.650;10.090;2024-02-21T05:57:31;9.23;;;3.33;;
78224;SDS011;67498;53.650;10.090;2024-02-21T05:59:57;10.47;;;3.70;;
78224;SDS011;67498;53.650;10.090;2024-02-21T06:02:22;9.43;;;3.27;;
78224;SDS011;67498;53.650;10.090;2024-02-21T06:04:47;11.23;;;3.93;;
78224;SDS011;67498;53.650;10.090;2024-02-21T06:07:12;9.13;;;2.73;;
78224;SDS011;67498;53.650;10.090;2024-02-21T06:09:38;8.23;;;2.67;;
78224;SDS011;67498;53.650;10.090;2024-02-21T06:12:03;10.20;;;2.97;;
78224;SDS011;67498;53.650;10.090;2024-02-21T06:14:29;8.95;;;2.72;;
78224;SDS011;67498;53.650;10.090;2024-02-21T06:16:54;8.63;;;2.70;;
78224;SDS011;67498;53.650;10.090;2024-02-21T06:19:19;9.17;;;2.80;;
78224;SDS011;67498;53.650;10.090;2024-02-21T06:21:44;8.13;;;2.27;;
78224;SDS011;67498;53.650;10.090;2024-02-21T06:24:10;7.03;;;2.10;;
78224;SDS011;67498;53.650;10.090;2024-02-21T06:26:35;6.50;;;2.37;;
78224;SDS011;67498;53.650;10.090;2024-02-21T06:29:00;9.00;;;2.20;;
78224;SDS011;67498;53.650;10.090;2024-02-21T06:31:27;6.07;;;1.88;;
78224;SDS011;67498;53.650;10.090;2024-02-21T06:33:52;6.10;;;1.80;;
78224;SDS011;67498;53.650;10.090;2024-02-21T06:36:17;5.70;;;1.87;;
78224;SDS011;67498;53.650;10.090;2024-02-21T06:38:43;5.07;;;1.60;;
78224;SDS011;67498;53.650;10.090;2024-02-21T06:41:18;4.97;;;1.20;;
78224;SDS011;67498;53.650;10.090;2024-02-21T06:43:44;5.30;;;1.10;;
78224;SDS011;67498;53.650;10.090;2024-02-21T06:46:10;6.10;;;1.40;;
78224;SDS011;67498;53.650;10.090;2024-02-21T06:48:36;6.22;;;0.95;;
78224;SDS011;67498;53.650;10.090;2024-02-21T06:51:01;4.63;;;0.97;;
78224;SDS011;67498;53.650;10.090;2024-02-21T06:53:26;5.00;;;0.97;;
78224;SDS011;67498;53.650;10.090;2024-02-21T06:55:52;4.67;;;0.90;;
78224;SDS011;67498;53.650;10.090;2024-02-21T06:58:17;4.60;;;1.03;;
78224;SDS011;67498;53.650;10.090;2024-02-21T07:00:42;6.80;;;1.23;;
78224;SDS011;67498;53.650;10.090;2024-02-21T07:03:07;4.23;;;1.10;;
78224;SDS011;67498;53.650;10.090;2024-02-21T07:05:33;3.53;;;0.83;;
78224;SDS011;67498;53.650;10.090;2024-02-21T07:07:58;6.63;;;1.10;;
78224;SDS011;67498;53.650;10.090;2024-02-21T07:10:23;5.83;;;1.00;;
78224;SDS011;67498;53.650;10.090;2024-02-21T07:12:49;4.00;;;0.90;;
78224;SDS011;67498;53.650;10.090;2024-02-21T07:15:14;7.47;;;0.87;;
78224;SDS011;67498;53.650;10.090;2024-02-21T07:17:39;3.63;;;0.80;;
78224;SDS011;67498;53.650;10.090;2024-02-21T07:20:05;4.40;;;0.80;;
78224;SDS011;67498;53.650;10.090;2024-02-21T07:22:30;3.47;;;0.70;;
78224;SDS011;67498;53.650;10.090;2024-02-21T07:24:56;4.00;;;0.83;;
78224;SDS011;67498;53.650;10.090;2024-02-21T07:27:21;4.70;;;0.90;;
78224;SDS011;67498;53.650;10.090;2024-02-21T07:29:46;4.90;;;1.10;;
78224;SDS011;67498;53.650;10.090;2024-02-21T07:32:13;3.80;;;0.80;;
78224;SDS011;67498;53.650;10.090;2024-02-21T07:34:39;4.18;;;1.13;;
78224;SDS011;67498;53.650;10.090;2024-02-21T07:37:04;5.80;;;1.10;;
78224;SDS011;67498;53.650;10.090;2024-02-21T07:39:29;6.17;;;1.17;;
78224;SDS011;67498;53.650;10.090;2024-02-21T07:41:54;3.80;;;0.83;;
78224;SDS011;67498;53.650;10.090;2024-02-21T07:44:20;4.27;;;1.33;;
78224;SDS011;67498;53.650;10.090;2024-02-21T07:46:45;3.93;;;0.80;;
78224;SDS011;67498;53.650;10.090;2024-02-21T07:49:10;7.50;;;0.90;;
78224;SDS011;67498;53.650;10.090;2024-02-21T07:51:35;5.20;;;1.33;;
78224;SDS011;67498;53.650;10.090;2024-02-21T07:54:01;4.07;;;1.03;;
78224;SDS011;67498;53.650;10.090;2024-02-21T07:56:27;5.03;;;1.20;;
78224;SDS011;67498;53.650;10.090;2024-02-21T07:58:52;6.57;;;1.02;;
78224;SDS011;67498;53.650;10.090;2024-02-21T08:01:20;7.10;;;1.13;;
78224;SDS011;67498;53.650;10.090;2024-02-21T08:03:46;9.60;;;1.10;;
78224;SDS011;67498;53.650;10.090;2024-02-21T08:06:11;7.53;;;1.47;;
78224;SDS011;67498;53.650;10.090;2024-02-21T08:08:38;17.73;;;1.52;;
78224;SDS011;67498;53.650;10.090;2024-02-21T08:11:03;12.70;;;1.60;;
78224;SDS011;67498;53.650;10.090;2024-02-21T08:13:28;6.43;;;1.47;;
78224;SDS011;67498;53.650;10.090;2024-02-21T08:15:54;11.00;;;1.73;;
78224;SDS011;67498;53.650;10.090;2024-02-21T08:18:19;11.73;;;1.60;;
78224;SDS011;67498;53.650;10.090;2024-02-21T08:20:44;7.47;;;1.30;;
78224;SDS011;67498;53.650;10.090;2024-02-21T08:23:10;15.43;;;1.73;;
78224;SDS011;67498;53.650;10.090;2024-02-21T08:25:35;10.17;;;1.43;;
78224;SDS011;67498;53.650;10.090;2024-02-21T08:28:00;14.97;;;1.80;;
78224;SDS011;67498;53.650;10.090;2024-02-21T08:30:26;10.63;;;1.37;;
78224;SDS011;67498;53.650;10.090;2024-02-21T08:32:51;13.83;;;1.70;;
78224;SDS011;67498;53.650;10.090;2024-02-21T08:35:18;8.95;;;1.75;;
78224;SDS011;67498;53.650;10.090;2024-02-21T08:37:44;11.17;;;1.60;;
78224;SDS011;67498;53.650;10.090;2024-02-21T08:40:12;8.80;;;1.40;;
78224;SDS011;67498;53.650;10.090;2024-02-21T08:42:40;9.73;;;1.70;;
78224;SDS011;67498;53.650;10.090;2024-02-21T08:45:06;22.65;;;2.08;;
78224;SDS011;67498;53.650;10.090;2024-02-21T08:47:31;18.40;;;2.23;;
78224;SDS011;67498;53.650;10.090;2024-02-21T08:49:56;14.40;;;1.80;;
78224;SDS011;67498;53.650;10.090;2024-02-21T08:52:22;9.73;;;1.27;;
78224;SDS011;67498;53.650;10.090;2024-02-21T08:54:47;10.10;;;1.43;;
78224;SDS011;67498;53.650;10.090;2024-02-21T08:57:12;13.90;;;1.50;;
78224;SDS011;67498;53.650;10.090;2024-02-21T08:59:39;9.45;;;1.23;;
78224;SDS011;67498;53.650;10.090;2024-02-21T09:02:04;7.73;;;1.47;;
78224;SDS011;67498;53.650;10.090;2024-02-21T09:04:29;6.00;;;0.83;;
78224;SDS011;67498;53.650;10.090;2024-02-21T09:06:55;3.85;;;0.80;;
78224;SDS011;67498;53.650;10.090;2024-02-21T09:09:21;12.60;;;1.33;;
78224;SDS011;67498;53.650;10.090;2024-02-21T09:11:46;12.13;;;2.40;;
78224;SDS011;67498;53.650;10.090;2024-02-21T09:14:11;9.90;;;1.40;;
78224;SDS011;67498;53.650;10.090;2024-02-21T09:16:37;10.47;;;0.97;;
78224;SDS011;67498;53.650;10.090;2024-02-21T09:19:02;11.87;;;1.70;;
78224;SDS011;67498;53.650;10.090;2024-02-21T09:21:27;10.95;;;1.63;;
78224;SDS011;67498;53.650;10.090;2024-02-21T09:23:53;8.60;;;0.93;;
78224;SDS011;67498;53.650;10.090;2024-02-21T09:26:18;6.30;;;1.00;;
78224;SDS011;67498;53.650;10.090;2024-02-21T09:28:43;15.60;;;2.07;;
78224;SDS011;67498;53.650;10.090;2024-02-21T09:31:10;14.88;;;1.63;;
78224;SDS011;67498;53.650;10.090;2024-02-21T09:33:35;10.30;;;1.60;;
78224;SDS011;67498;53.650;10.090;2024-02-21T09:36:01;13.97;;;1.17;;
78224;SDS011;67498;53.650;10.090;2024-02-21T09:38:26;13.32;;;1.42;;
78224;SDS011;67498;53.650;10.090;2024-02-21T09:40:58;6.70;;;1.03;;
78224;SDS011;67498;53.650;10.090;2024-02-21T09:43:26;13.52;;;1.55;;
78224;SDS011;67498;53.650;10.090;2024-02-21T09:45:51;7.87;;;1.40;;
78224;SDS011;67498;53.650;10.090;2024-02-21T09:51:04;6.60;;;1.37;;
78224;SDS011;67498;53.650;10.090;2024-02-21T09:53:32;7.70;;;1.45;;
78224;SDS011;67498;53.650;10.090;2024-02-21T09:55:57;15.97;;;1.70;;
78224;SDS011;67498;53.650;10.090;2024-02-21T09:58:24;11.63;;;1.35;;
78224;SDS011;67498;53.650;10.090;2024-02-21T10:00:52;6.22;;;0.95;;
78224;SDS011;67498;53.650;10.090;2024-02-21T10:03:17;9.17;;;0.90;;
78224;SDS011;67498;53.650;10.090;2024-02-21T10:05:46;7.37;;;1.20;;
78224;SDS011;67498;53.650;10.090;2024-02-21T10:08:16;5.60;;;1.17;;
78224;SDS011;67498;53.650;10.090;2024-02-21T10:10:44;8.68;;;1.10;;
78224;SDS011;67498;53.650;10.090;2024-02-21T10:13:11;5.85;;;1.00;;
78224;SDS011;67498;53.650;10.090;2024-02-21T10:15:47;5.57;;;0.70;;
78224;SDS011;67498;53.650;10.090;2024-02-21T10:18:14;5.95;;;0.82;;
78224;SDS011;67498;53.650;10.090;2024-02-21T10:20:42;6.93;;;1.00;;
78224;SDS011;67498;53.650;10.090;2024-02-21T10:23:09;7.95;;;0.90;;
78224;SDS011;67498;53.650;10.090;2024-02-21T10:25:37;7.53;;;1.20;;
78224;SDS011;67498;53.650;10.090;2024-02-21T10:28:06;8.32;;;0.80;;
78224;SDS011;67498;53.650;10.090;2024-02-21T10:30:32;3.53;;;1.00;;
78224;SDS011;67498;53.650;10.090;2024-02-21T10:32:57;7.40;;;1.13;;
78224;SDS011;67498;53.650;10.090;2024-02-21T10:35:29;10.47;;;1.40;;
78224;SDS011;67498;53.650;10.090;2024-02-21T10:37:55;3.78;;;0.90;;
78224;SDS011;67498;53.650;10.090;2024-02-21T10:40:25;5.78;;;1.52;;
78224;SDS011;67498;53.650;10.090;2024-02-21T10:42:57;8.80;;;1.73;;
78224;SDS011;67498;53.650;10.090;2024-02-21T10:45:36;6.10;;;1.37;;
78224;SDS011;67498;53.650;10.090;2024-02-21T10:48:08;5.88;;;1.80;;
78224;SDS011;67498;53.650;10.090;2024-02-21T10:50:39;6.30;;;1.90;;
78224;SDS011;67498;53.650;10.090;2024-02-21T10:53:47;7.85;;;2.10;;
78224;SDS011;67498;53.650;10.090;2024-02-21T10:56:16;8.75;;;3.00;;
78224;SDS011;67498;53.650;10.090;2024-02-21T10:58:44;14.73;;;3.60;;
78224;SDS011;67498;53.650;10.090;2024-02-21T11:01:10;13.43;;;3.53;;
78224;SDS011;67498;53.650;10.090;2024-02-21T11:03:40;12.27;;;4.15;;
78224;SDS011;67498;53.650;10.090;2024-02-21T11:06:07;12.65;;;4.15;;
78224;SDS011;67498;53.650;10.090;2024-02-21T11:08:34;16.70;;;4.80;;
78224;SDS011;67498;53.650;10.090;2024-02-21T11:10:59;14.73;;;5.03;;
78224;SDS011;67498;53.650;10.090;2024-02-21T11:13:31;18.47;;;5.83;;
78224;SDS011;67498;53.650;10.090;2024-02-21T11:16:08;20.05;;;6.28;;
78224;SDS011;67498;53.650;10.090;2024-02-21T11:18:35;22.67;;;6.57;;
78224;SDS011;67498;53.650;10.090;2024-02-21T11:21:03;14.75;;;5.25;;
78224;SDS011;67498;53.650;10.090;2024-02-21T11:23:32;19.03;;;6.87;;
78224;SDS011;67498;53.650;10.090;2024-02-21T11:26:05;19.00;;;5.90;;
78224;SDS011;67498;53.650;10.090;2024-02-21T11:28:30;19.53;;;6.77;;
78224;SDS011;67498;53.650;10.090;2024-02-21T11:31:06;18.85;;;6.28;;
78224;SDS011;67498;53.650;10.090;2024-02-21T11:33:41;17.80;;;6.63;;
78224;SDS011;67498;53.650;10.090;2024-02-21T11:36:10;17.98;;;6.45;;
78224;SDS011;67498;53.650;10.090;2024-02-21T11:38:36;15.10;;;6.05;;
78224;SDS011;67498;53.650;10.090;2024-02-21T11:41:02;15.83;;;6.50;;
78224;SDS011;67498;53.650;10.090;2024-02-21T11:43:27;21.08;;;7.15;;
78224;SDS011;67498;53.650;10.090;2024-02-21T11:46:02;19.80;;;5.33;;
78224;SDS011;67498;53.650;10.090;2024-02-21T11:48:29;18.75;;;5.85;;
78224;SDS011;67498;53.650;10.090;2024-02-21T11:50:57;17.57;;;6.03;;
78224;SDS011;67498;53.650;10.090;2024-02-21T11:53:23;19.98;;;6.35;;
78224;SDS011;67498;53.650;10.090;2024-02-21T11:55:49;19.30;;;6.13;;
78224;SDS011;67498;53.650;10.090;2024-02-21T11:58:15;20.07;;;5.63;;
78224;SDS011;67498;53.650;10.090;2024-02-21T12:00:41;18.52;;;5.40;;
78224;SDS011;67498;53.650;10.090;2024-02-21T12:03:06;13.60;;;4.87;;
78224;SDS011;67498;53.650;10.090;2024-02-21T12:05:32;16.67;;;4.82;;
78224;SDS011;67498;53.650;10.090;2024-02-21T12:07:57;14.23;;;5.40;;
78224;SDS011;67498;53.650;10.090;2024-02-21T12:10:23;16.67;;;5.03;;
78224;SDS011;67498;53.650;10.090;2024-02-21T12:12:48;14.03;;;4.90;;
78224;SDS011;67498;53.650;10.090;2024-02-21T12:15:16;13.63;;;4.40;;
78224;SDS011;67498;53.650;10.090;2024-02-21T12:17:43;17.38;;;4.30;;
78224;SDS011;67498;53.650;10.090;2024-02-21T12:20:08;13.90;;;4.37;;
78224;SDS011;67498;53.650;10.090;2024-02-21T12:22:43;14.67;;;4.33;;
78224;SDS011;67498;53.650;10.090;2024-02-21T12:25:15;16.63;;;4.32;;
78224;SDS011;67498;53.650;10.090;2024-02-21T12:27:45;14.90;;;3.53;;
78224;SDS011;67498;53.650;10.090;2024-02-21T12:30:10;11.57;;;4.07;;
78224;SDS011;67498;53.650;10.090;2024-02-21T12:32:37;10.80;;;4.05;;
78224;SDS011;67498;53.650;10.090;2024-02-21T12:35:02;14.40;;;4.40;;
78224;SDS011;67498;53.650;10.090;2024-02-21T12:37:28;15.43;;;4.57;;
78224;SDS011;67498;53.650;10.090;2024-02-21T12:39:54;12.65;;;4.15;;
78224;SDS011;67498;53.650;10.090;2024-02-21T12:42:19;12.77;;;4.17;;
78224;SDS011;67498;53.650;10.090;2024-02-21T12:44:45;13.23;;;4.00;;
78224;SDS011;67498;53.650;10.090;2024-02-21T12:47:10;14.07;;;3.73;;
78224;SDS011;67498;53.650;10.090;2024-02-21T12:49:36;12.70;;;3.87;;
78224;SDS011;67498;53.650;10.090;2024-02-21T12:52:02;14.73;;;4.32;;
78224;SDS011;67498;53.650;10.090;2024-02-21T12:54:28;17.43;;;4.33;;
78224;SDS011;67498;53.650;10.090;2024-02-21T12:56:55;17.45;;;3.58;;
78224;SDS011;67498;53.650;10.090;2024-02-21T12:59:20;13.37;;;4.07;;
78224;SDS011;67498;53.650;10.090;2024-02-21T13:01:45;13.95;;;4.18;;
78224;SDS011;67498;53.650;10.090;2024-02-21T13:04:11;14.63;;;3.30;;
78224;SDS011;67498;53.650;10.090;2024-02-21T13:06:36;10.87;;;3.50;;
78224;SDS011;67498;53.650;10.090;2024-02-21T13:09:02;14.97;;;4.60;;
78224;SDS011;67498;53.650;10.090;2024-02-21T13:11:28;17.90;;;5.30;;
78224;SDS011;67498;53.650;10.090;2024-02-21T13:13:55;14.88;;;4.22;;
78224;SDS011;67498;53.650;10.090;2024-02-21T13:16:21;15.30;;;5.37;;
78224;SDS011;67498;53.650;10.090;2024-02-21T13:18:47;13.27;;;4.35;;
78224;SDS011;67498;53.650;10.090;2024-02-21T13:21:13;15.77;;;4.47;;
78224;SDS011;67498;53.650;10.090;2024-02-21T13:23:38;13.50;;;4.70;;
78224;SDS011;67498;53.650;10.090;2024-02-21T13:26:04;20.75;;;5.57;;
78224;SDS011;67498;53.650;10.090;2024-02-21T13:28:30;14.53;;;4.60;;
78224;SDS011;67498;53.650;10.090;2024-02-21T13:30:55;14.70;;;5.30;;
78224;SDS011;67498;53.650;10.090;2024-02-21T13:33:20;17.93;;;4.93;;
78224;SDS011;67498;53.650;10.090;2024-02-21T13:35:46;18.70;;;5.20;;
78224;SDS011;67498;53.650;10.090;2024-02-21T13:38:11;12.30;;;4.53;;
78224;SDS011;67498;53.650;10.090;2024-02-21T13:40:37;19.77;;;5.23;;
78224;SDS011;67498;53.650;10.090;2024-02-21T13:43:02;14.67;;;4.70;;
78224;SDS011;67498;53.650;10.090;2024-02-21T13:45:27;15.97;;;5.00;;
78224;SDS011;67498;53.650;10.090;2024-02-21T13:47:52;17.37;;;5.60;;
78224;SDS011;67498;53.650;10.090;2024-02-21T13:50:18;14.90;;;5.17;;
78224;SDS011;67498;53.650;10.090;2024-02-21T13:52:45;10.82;;;3.80;;
78224;SDS011;67498;53.650;10.090;2024-02-21T13:55:11;17.88;;;4.95;;
78224;SDS011;67498;53.650;10.090;2024-02-21T13:57:36;13.73;;;5.07;;
78224;SDS011;67498;53.650;10.090;2024-02-21T14:00:02;14.63;;;4.67;;
78224;SDS011;67498;53.650;10.090;2024-02-21T14:02:28;13.38;;;4.32;;
78224;SDS011;67498;53.650;10.090;2024-02-21T14:04:54;23.25;;;4.65;;
78224;SDS011;67498;53.650;10.090;2024-02-21T14:07:19;15.77;;;4.33;;
78224;SDS011;67498;53.650;10.090;2024-02-21T14:09:45;13.60;;;4.27;;
78224;SDS011;67498;53.650;10.090;2024-02-21T14:12:10;16.03;;;4.97;;
78224;SDS011;67498;53.650;10.090;2024-02-21T14:14:35;13.63;;;4.67;;
78224;SDS011;67498;53.650;10.090;2024-02-21T14:17:02;22.45;;;4.82;;
78224;SDS011;67498;53.650;10.090;2024-02-21T14:19:28;15.83;;;4.47;;
78224;SDS011;67498;53.650;10.090;2024-02-21T14:21:54;10.93;;;3.72;;